Time;durP1;ratioP1;P1;durP2;ratioP2;P2;SDS_P1;SDS_P2;PMS_P1;PMS_P2;Temp;Humidity;BMP_temperature;BMP_pressure;BME280_temperature;BME280_humidity;BME280_pressure;Samples;Min_cycle;Max_cycle;Signal;HPM_P1;HPM_P2
2022/08/16 00:00:44;;;;;;;6.65;4.25;;;;;;;;;;2047226;29;20524;-88
2022/08/16 00:01:46;;;;;;;6.07;4.72;;;;;;;;;;2039284;29;20031;-88
2022/08/16 00:02:46;;;;;;;6.63;4.50;;;;;;;;;;2039283;29;20023;-88
2022/08/16 00:03:47;;;;;;;6.45;4.43;;;;;;;;;;2039228;29;20047;-88
2022/08/16 00:04:47;;;;;;;7.65;4.97;;;;;;;;;;2053411;28;20469;-88
2022/08/16 00:05:48;;;;;;;6.43;4.47;;;;;;;;;;2055055;28;20316;-88
2022/08/16 00:06:48;;;;;;;7.38;4.65;;;;;;;;;;2056077;28;20034;-88
2022/08/16 00:07:50;;;;;;;6.97;4.75;;;;;;;;;;2055680;28;20019;-87
2022/08/16 00:08:51;;;;;;;7.72;4.57;;;;;;;;;;2047283;29;20034;-88
2022/08/16 00:09:51;;;;;;;7.05;5.07;;;;;;;;;;2039333;29;20067;-88
2022/08/16 00:10:51;;;;;;;7.22;4.68;;;;;;;;;;2047491;29;20027;-88
2022/08/16 00:11:52;;;;;;;8.98;4.95;;;;;;;;;;2047246;29;20529;-88
2022/08/16 00:12:53;;;;;;;8.35;4.78;;;;;;;;;;2047264;29;20157;-88
2022/08/16 00:13:53;;;;;;;7.45;5.30;;;;;;;;;;2047055;29;20020;-88
2022/08/16 00:14:55;;;;;;;8.77;4.63;;;;;;;;;;1692979;28;10359287;-88
2022/08/16 00:15:55;;;;;;;9.82;5.05;;;;;;;;;;2055446;28;20062;-88
2022/08/16 00:16:57;;;;;;;6.65;4.72;;;;;;;;;;2046970;29;20030;-88
2022/08/16 00:17:58;;;;;;;6.88;5.05;;;;;;;;;;2039295;29;20019;-88
2022/08/16 00:18:58;;;;;;;8.73;5.68;;;;;;;;;;2047372;29;20047;-88
2022/08/16 00:19:59;;;;;;;7.63;5.30;;;;;;;;;;2055635;28;20038;-88
2022/08/16 00:20:59;;;;;;;7.10;4.93;;;;;;;;;;2055943;28;20034;-88
2022/08/16 00:22:00;;;;;;;6.93;5.28;;;;;;;;;;2047132;29;20027;-88
2022/08/16 00:23:00;;;;;;;8.15;5.65;;;;;;;;;;2047004;29;20031;-88
2022/08/16 00:24:01;;;;;;;9.07;5.35;;;;;;;;;;2047094;29;20062;-88
2022/08/16 00:25:05;;;;;;;6.32;4.40;;;;;;;;;;2039249;29;20418;-88
2022/08/16 00:26:06;;;;;;;8.05;5.00;;;;;;;;;;2047486;28;20034;-88
2022/08/16 00:27:06;;;;;;;8.70;5.18;;;;;;;;;;2047278;29;20513;-88
2022/08/16 00:28:07;;;;;;;8.25;5.05;;;;;;;;;;2047425;29;20110;-88
2022/08/16 00:29:08;;;;;;;7.18;4.70;;;;;;;;;;2055922;28;20019;-88
2022/08/16 00:30:12;;;;;;;5.95;4.38;;;;;;;;;;1703942;28;10257988;-88
2022/08/16 00:31:12;;;;;;;6.93;4.35;;;;;;;;;;2055948;28;20050;-88
2022/08/16 00:32:13;;;;;;;7.80;5.05;;;;;;;;;;2052445;28;20489;-88
2022/08/16 00:33:14;;;;;;;6.65;4.35;;;;;;;;;;2052927;28;20054;-88
2022/08/16 00:34:15;;;;;;;7.00;4.45;;;;;;;;;;2063828;28;20378;-88
2022/08/16 00:35:20;;;;;;;7.00;5.25;;;;;;;;;;2054922;28;20030;-88
2022/08/16 00:36:20;;;;;;;10.18;4.95;;;;;;;;;;2047713;28;20071;-88
2022/08/16 00:37:23;;;;;;;6.97;5.00;;;;;;;;;;2047389;29;20133;-88
2022/08/16 00:38:24;;;;;;;8.85;5.22;;;;;;;;;;2055388;28;20093;-88
2022/08/16 00:39:24;;;;;;;8.88;5.20;;;;;;;;;;2063543;28;20038;-88
2022/08/16 00:40:47;;;;;;;7.47;4.63;;;;;;;;;;2055302;28;20469;-88
2022/08/16 00:41:54;;;;;;;7.50;5.02;;;;;;;;;;1935920;28;10258716;-88
2022/08/16 00:42:55;;;;;;;7.72;4.72;;;;;;;;;;2055171;28;20742;-88
2022/08/16 00:43:58;;;;;;;7.20;4.82;;;;;;;;;;1705987;28;10163963;-88
2022/08/16 00:45:16;;;;;;;7.78;4.82;;;;;;;;;;2047223;28;20027;-88
2022/08/16 00:46:26;;;;;;;7.60;4.95;;;;;;;;;;2049509;28;20491;-88
2022/08/16 00:47:26;;;;;;;9.32;4.55;;;;;;;;;;2055513;28;20038;-89
2022/08/16 00:48:29;;;;;;;8.48;5.60;;;;;;;;;;2055741;28;20065;-89
2022/08/16 00:49:32;;;;;;;6.85;4.85;;;;;;;;;;2047245;29;20027;-89
2022/08/16 00:50:35;;;;;;;7.93;4.72;;;;;;;;;;2047479;28;20079;-88
2022/08/16 00:51:36;;;;;;;8.18;4.85;;;;;;;;;;2047125;29;20078;-88
2022/08/16 00:52:36;;;;;;;8.55;4.93;;;;;;;;;;2039176;29;20431;-88
2022/08/16 00:53:37;;;;;;;8.43;5.22;;;;;;;;;;2046936;29;20515;-88
2022/08/16 00:54:38;;;;;;;7.82;5.30;;;;;;;;;;2047078;29;20062;-88
2022/08/16 00:55:43;;;;;;;9.80;5.63;;;;;;;;;;2047112;29;20431;-88
2022/08/16 00:56:47;;;;;;;7.57;5.30;;;;;;;;;;2048078;28;20023;-89
2022/08/16 00:57:50;;;;;;;8.15;5.15;;;;;;;;;;2055700;28;20033;-88
2022/08/16 00:58:51;;;;;;;9.25;5.07;;;;;;;;;;2055825;28;20015;-88
2022/08/16 00:59:51;;;;;;;8.40;4.55;;;;;;;;;;2046761;28;20050;-88
2022/08/16 01:00:52;;;;;;;6.25;5.18;;;;;;;;;;2046988;29;20098;-88
2022/08/16 01:01:53;;;;;;;8.60;4.85;;;;;;;;;;2055578;28;20027;-88
2022/08/16 01:02:59;;;;;;;8.13;5.45;;;;;;;;;;2055594;28;20400;-89
2022/08/16 01:04:01;;;;;;;7.40;4.97;;;;;;;;;;2047195;29;20031;-88
2022/08/16 01:05:02;;;;;;;7.55;5.00;;;;;;;;;;2039828;29;20027;-88
2022/08/16 01:06:04;;;;;;;8.63;5.15;;;;;;;;;;2040341;29;20495;-88
2022/08/16 01:07:06;;;;;;;7.63;5.35;;;;;;;;;;2048560;28;20023;-88
2022/08/16 01:08:08;;;;;;;9.15;5.63;;;;;;;;;;2050357;29;20068;-88
2022/08/16 01:09:09;;;;;;;7.00;4.50;;;;;;;;;;2050391;28;20027;-88
2022/08/16 01:10:10;;;;;;;8.48;5.25;;;;;;;;;;2050864;29;20402;-89
2022/08/16 01:11:11;;;;;;;6.88;4.82;;;;;;;;;;2048941;28;20138;-88
2022/08/16 01:12:11;;;;;;;7.18;5.00;;;;;;;;;;2057228;28;20034;-88
2022/08/16 01:13:16;;;;;;;9.18;5.78;;;;;;;;;;2057396;28;20033;-89
2022/08/16 01:14:28;;;;;;;8.50;5.25;;;;;;;;;;2048313;28;20534;-88
2022/08/16 01:15:28;;;;;;;8.00;4.43;;;;;;;;;;2050215;28;20160;-88
2022/08/16 01:16:29;;;;;;;10.85;5.30;;;;;;;;;;2048422;29;20148;-87
2022/08/16 01:17:32;;;;;;;6.82;4.70;;;;;;;;;;2048415;28;20035;-87
2022/08/16 01:18:47;;;;;;;9.00;5.22;;;;;;;;;;2057277;28;20063;-87
2022/08/16 01:19:52;;;;;;;7.55;5.22;;;;;;;;;;2057100;28;20027;-88
2022/08/16 01:21:38;;;;;;;8.20;4.90;;;;;;;;;;2048706;29;20031;-87
2022/08/16 01:22:51;;;;;;;7.78;4.80;;;;;;;;;;2031479;29;20113;-88
2022/08/16 01:24:12;;;;;;;6.32;4.75;;;;;;;;;;2050247;28;20043;-87
2022/08/16 01:25:19;;;;;;;10.30;5.72;;;;;;;;;;2057009;28;20034;-87
2022/08/16 01:26:19;;;;;;;6.43;4.53;;;;;;;;;;2048359;29;20120;-87
2022/08/16 01:27:32;;;;;;;8.20;5.22;;;;;;;;;;2048040;28;20544;-87
2022/08/16 01:28:32;;;;;;;8.48;5.28;;;;;;;;;;2048360;29;20522;-87
2022/08/16 01:29:39;;;;;;;8.65;4.85;;;;;;;;;;2048333;29;20090;-87
2022/08/16 01:30:43;;;;;;;7.10;4.72;;;;;;;;;;2057140;28;20413;-87
2022/08/16 01:31:43;;;;;;;8.32;5.30;;;;;;;;;;2048277;29;20079;-87
2022/08/16 01:32:44;;;;;;;7.57;5.63;;;;;;;;;;2048349;29;20023;-87
2022/08/16 01:33:55;;;;;;;10.41;5.30;;;;;;;;;;2038248;29;10375139;-87
2022/08/16 01:34:55;;;;;;;10.18;5.07;;;;;;;;;;2048408;29;20337;-87
2022/08/16 01:35:59;;;;;;;8.00;5.85;;;;;;;;;;2048173;29;20031;-87
2022/08/16 01:37:08;;;;;;;7.32;4.57;;;;;;;;;;2056344;28;20046;-87
2022/08/16 01:38:32;;;;;;;8.35;5.55;;;;;;;;;;1351205;28;10397116;-87
2022/08/16 01:39:33;;;;;;;9.50;5.05;;;;;;;;;;2051318;28;20027;-87
2022/08/16 01:40:33;;;;;;;7.45;4.70;;;;;;;;;;2048181;29;20126;-87
2022/08/16 01:41:34;;;;;;;7.28;4.65;;;;;;;;;;2040051;29;20114;-87
2022/08/16 01:42:34;;;;;;;6.57;4.90;;;;;;;;;;2048283;28;20042;-86
2022/08/16 01:43:38;;;;;;;8.60;5.00;;;;;;;;;;2048669;29;20046;-88
2022/08/16 01:44:39;;;;;;;8.50;5.43;;;;;;;;;;2061651;28;20022;-88
2022/08/16 01:45:40;;;;;;;7.75;5.35;;;;;;;;;;2055888;28;20038;-87
2022/08/16 01:46:44;;;;;;;8.25;5.60;;;;;;;;;;2056134;28;20026;-89
2022/08/16 01:47:47;;;;;;;8.25;5.43;;;;;;;;;;2056271;28;20561;-88
2022/08/16 01:48:52;;;;;;;6.80;4.80;;;;;;;;;;2048385;28;20106;-88
2022/08/16 01:49:52;;;;;;;8.48;5.50;;;;;;;;;;2048580;28;20030;-88
2022/08/16 01:50:53;;;;;;;7.57;4.78;;;;;;;;;;2056137;28;20026;-88
2022/08/16 01:51:57;;;;;;;8.35;5.18;;;;;;;;;;2056128;28;20081;-88
2022/08/16 01:52:58;;;;;;;7.60;5.32;;;;;;;;;;2048603;28;20031;-88
2022/08/16 01:53:58;;;;;;;7.60;5.13;;;;;;;;;;2046256;29;20034;-88
2022/08/16 01:54:59;;;;;;;6.95;4.45;;;;;;;;;;2040331;29;20126;-88
2022/08/16 01:56:00;;;;;;;8.65;5.43;;;;;;;;;;2048351;28;20095;-88
2022/08/16 01:57:02;;;;;;;7.40;5.35;;;;;;;;;;2048120;29;20031;-88
2022/08/16 01:58:03;;;;;;;8.15;5.32;;;;;;;;;;2049186;28;20035;-88
2022/08/16 01:59:07;;;;;;;8.07;5.38;;;;;;;;;;2057823;28;20030;-88
2022/08/16 02:00:10;;;;;;;9.38;5.63;;;;;;;;;;2057462;28;20027;-88
2022/08/16 02:01:11;;;;;;;8.93;4.97;;;;;;;;;;2048151;29;20042;-88
2022/08/16 02:02:11;;;;;;;8.23;5.20;;;;;;;;;;2040173;29;20042;-88
2022/08/16 02:03:13;;;;;;;8.30;5.40;;;;;;;;;;2040398;29;20419;-87
2022/08/16 02:04:13;;;;;;;9.02;5.55;;;;;;;;;;2040405;29;20402;-88
2022/08/16 02:05:14;;;;;;;7.82;5.40;;;;;;;;;;2040194;29;20075;-88
2022/08/16 02:06:14;;;;;;;9.15;7.10;;;;;;;;;;2040239;29;20024;-88
2022/08/16 02:07:17;;;;;;;8.23;5.28;;;;;;;;;;2040175;29;20095;-88
2022/08/16 02:08:17;;;;;;;9.07;6.03;;;;;;;;;;2048361;28;20034;-88
2022/08/16 02:09:21;;;;;;;7.85;5.13;;;;;;;;;;2056502;28;20077;-88
2022/08/16 02:10:22;;;;;;;6.68;4.72;;;;;;;;;;2056960;28;20144;-88
2022/08/16 02:11:26;;;;;;;6.57;5.05;;;;;;;;;;2047947;29;20087;-88
2022/08/16 02:12:28;;;;;;;11.48;5.57;;;;;;;;;;2048115;29;20058;-88
2022/08/16 02:13:29;;;;;;;8.85;6.05;;;;;;;;;;2047978;28;20046;-88
2022/08/16 02:14:30;;;;;;;7.97;5.45;;;;;;;;;;2056570;28;20094;-88
2022/08/16 02:15:33;;;;;;;9.98;5.55;;;;;;;;;;2047903;29;20023;-88
2022/08/16 02:16:34;;;;;;;6.82;5.22;;;;;;;;;;2039823;29;20035;-88
2022/08/16 02:17:34;;;;;;;7.57;5.70;;;;;;;;;;2047931;29;20055;-88
2022/08/16 02:18:39;;;;;;;11.63;4.90;;;;;;;;;;1828909;28;10210949;-88
2022/08/16 02:19:41;;;;;;;8.35;5.45;;;;;;;;;;2047879;29;20295;-89
2022/08/16 02:20:46;;;;;;;10.57;5.63;;;;;;;;;;2040113;29;20038;-88
2022/08/16 02:21:51;;;;;;;6.68;4.72;;;;;;;;;;2049862;28;20038;-87
2022/08/16 02:22:51;;;;;;;6.53;4.55;;;;;;;;;;2048750;29;20027;-88
2022/08/16 02:23:51;;;;;;;9.25;5.88;;;;;;;;;;2048467;29;20027;-88
2022/08/16 02:24:52;;;;;;;8.30;5.45;;;;;;;;;;2048830;29;20103;-88
2022/08/16 02:25:52;;;;;;;8.43;5.00;;;;;;;;;;2039758;29;20027;-88
2022/08/16 02:26:55;;;;;;;6.82;5.03;;;;;;;;;;2032150;29;20031;-88
2022/08/16 02:27:55;;;;;;;7.18;5.32;;;;;;;;;;1693301;29;10001702;-88
2022/08/16 02:28:55;;;;;;;7.65;5.30;;;;;;;;;;2040149;29;20051;-88
2022/08/16 02:29:56;;;;;;;7.63;5.30;;;;;;;;;;2048015;29;20030;-89
2022/08/16 02:30:59;;;;;;;11.15;5.15;;;;;;;;;;2048465;29;20409;-88
2022/08/16 02:31:59;;;;;;;9.20;5.50;;;;;;;;;;1693258;29;10188587;-88
2022/08/16 02:33:01;;;;;;;7.68;4.50;;;;;;;;;;2039898;29;20082;-88
2022/08/16 02:34:02;;;;;;;8.23;5.15;;;;;;;;;;2040032;29;20036;-88
2022/08/16 02:35:03;;;;;;;6.70;4.85;;;;;;;;;;1698352;28;10248192;-88
2022/08/16 02:36:04;;;;;;;7.15;4.85;;;;;;;;;;2048550;29;20422;-88
2022/08/16 02:37:05;;;;;;;8.45;5.20;;;;;;;;;;2048664;29;20035;-89
2022/08/16 02:38:05;;;;;;;7.30;5.45;;;;;;;;;;2039857;29;20551;-88
2022/08/16 02:39:07;;;;;;;8.32;5.22;;;;;;;;;;2039958;29;20035;-89
2022/08/16 02:40:09;;;;;;;7.22;4.93;;;;;;;;;;2048470;29;20117;-88
2022/08/16 02:41:09;;;;;;;7.40;5.38;;;;;;;;;;2039837;29;20529;-88
2022/08/16 02:42:10;;;;;;;9.05;5.30;;;;;;;;;;2032028;29;20032;-88
2022/08/16 02:43:13;;;;;;;8.80;5.70;;;;;;;;;;2039891;29;20028;-88
2022/08/16 02:44:14;;;;;;;10.60;5.30;;;;;;;;;;2041502;29;20183;-96
2022/08/16 02:45:22;;;;;;;9.68;5.40;;;;;;;;;;1866601;29;10202129;-95
2022/08/16 02:46:22;;;;;;;8.27;5.63;;;;;;;;;;2034787;29;20336;-94
2022/08/16 02:47:23;;;;;;;9.35;5.30;;;;;;;;;;2033844;29;20047;-93
2022/08/16 02:48:25;;;;;;;9.43;5.45;;;;;;;;;;2033697;29;20103;-94
2022/08/16 02:49:25;;;;;;;7.88;5.55;;;;;;;;;;2033604;29;20032;-93
2022/08/16 02:50:28;;;;;;;9.50;4.80;;;;;;;;;;2033712;29;20051;-94
2022/08/16 02:51:28;;;;;;;8.48;5.60;;;;;;;;;;2033645;29;20484;-94
2022/08/16 02:52:28;;;;;;;9.82;5.63;;;;;;;;;;2033540;29;20043;-94
2022/08/16 02:53:30;;;;;;;7.75;4.80;;;;;;;;;;2033444;29;20472;-94
2022/08/16 02:54:30;;;;;;;7.80;5.63;;;;;;;;;;2033654;29;20122;-93
2022/08/16 02:55:31;;;;;;;7.30;4.82;;;;;;;;;;2041239;29;20028;-94
2022/08/16 02:56:31;;;;;;;8.82;5.20;;;;;;;;;;2033420;29;20130;-95
2022/08/16 02:57:32;;;;;;;9.55;5.90;;;;;;;;;;2033464;29;20035;-95
2022/08/16 02:58:32;;;;;;;8.15;5.28;;;;;;;;;;2041341;29;20228;-95
2022/08/16 02:59:33;;;;;;;10.73;5.82;;;;;;;;;;2041306;29;20586;-95
2022/08/16 03:00:33;;;;;;;8.60;5.10;;;;;;;;;;2034088;29;20036;-93
2022/08/16 03:01:34;;;;;;;8.40;5.30;;;;;;;;;;2036354;29;20055;-94
2022/08/16 03:02:36;;;;;;;7.70;4.93;;;;;;;;;;2035709;29;20035;-93
2022/08/16 03:03:37;;;;;;;7.43;5.28;;;;;;;;;;2036183;29;20024;-94
2022/08/16 03:04:38;;;;;;;9.48;5.70;;;;;;;;;;2033773;29;20069;-94
2022/08/16 03:05:40;;;;;;;8.10;5.20;;;;;;;;;;2041792;29;20038;-94
2022/08/16 03:06:41;;;;;;;8.27;5.30;;;;;;;;;;2049456;29;20026;-94
2022/08/16 03:07:42;;;;;;;9.07;5.90;;;;;;;;;;2041332;29;20547;-94
2022/08/16 03:08:44;;;;;;;13.00;6.20;;;;;;;;;;2033749;29;20620;-95
2022/08/16 03:09:44;;;;;;;8.45;5.47;;;;;;;;;;2033625;29;20024;-94
2022/08/16 03:10:45;;;;;;;8.23;5.70;;;;;;;;;;2033539;29;20119;-95
2022/08/16 03:11:46;;;;;;;10.88;6.18;;;;;;;;;;2033509;29;20031;-94
2022/08/16 03:12:49;;;;;;;10.35;6.50;;;;;;;;;;2033526;29;20024;-95
2022/08/16 03:13:52;;;;;;;11.00;5.93;;;;;;;;;;2033644;29;20076;-94
2022/08/16 03:14:52;;;;;;;9.25;5.75;;;;;;;;;;2033550;29;20490;-94
2022/08/16 03:15:53;;;;;;;9.73;6.07;;;;;;;;;;2033255;29;20024;-94
2022/08/16 03:16:54;;;;;;;9.13;5.75;;;;;;;;;;2033403;29;20035;-93
2022/08/16 03:17:55;;;;;;;7.43;5.03;;;;;;;;;;2033513;29;20028;-94
2022/08/16 03:18:56;;;;;;;8.63;5.80;;;;;;;;;;2033468;29;20416;-94
2022/08/16 03:19:56;;;;;;;8.93;5.65;;;;;;;;;;2041156;29;20058;-93
2022/08/16 03:20:58;;;;;;;9.00;5.72;;;;;;;;;;2033395;29;20039;-95
2022/08/16 03:21:58;;;;;;;7.57;5.25;;;;;;;;;;2033539;29;20016;-95
2022/08/16 03:22:59;;;;;;;11.15;5.53;;;;;;;;;;2041173;29;20517;-96
2022/08/16 03:23:59;;;;;;;8.65;5.57;;;;;;;;;;2041120;29;20122;-93
2022/08/16 03:25:03;;;;;;;10.38;5.72;;;;;;;;;;2041115;29;20039;-96
2022/08/16 03:26:03;;;;;;;9.13;5.18;;;;;;;;;;2033464;29;20060;-95
2022/08/16 03:27:04;;;;;;;11.57;5.50;;;;;;;;;;2033258;29;20122;-96
2022/08/16 03:28:06;;;;;;;9.30;5.78;;;;;;;;;;2040872;29;20035;-93
2022/08/16 03:29:06;;;;;;;7.80;4.65;;;;;;;;;;2032839;29;20538;-94
2022/08/16 03:30:14;;;;;;;9.18;6.00;;;;;;;;;;2041077;29;20031;-95
2022/08/16 03:31:14;;;;;;;11.55;6.18;;;;;;;;;;2041151;29;20032;-94
2022/08/16 03:32:15;;;;;;;9.30;6.10;;;;;;;;;;2041032;29;20039;-94
2022/08/16 03:33:15;;;;;;;7.70;5.85;;;;;;;;;;2041115;29;20047;-94
2022/08/16 03:34:16;;;;;;;10.23;5.53;;;;;;;;;;2033204;29;20498;-93
2022/08/16 03:35:29;;;;;;;10.89;5.78;;;;;;;;;;2004122;29;10136970;-93
2022/08/16 03:36:29;;;;;;;7.90;5.20;;;;;;;;;;2040937;29;20245;-94
2022/08/16 03:37:29;;;;;;;9.93;5.47;;;;;;;;;;2040858;29;20107;-93
2022/08/16 03:38:31;;;;;;;10.52;6.13;;;;;;;;;;2032973;29;20130;-94
2022/08/16 03:39:31;;;;;;;8.77;5.70;;;;;;;;;;2040754;29;20116;-92
2022/08/16 03:40:34;;;;;;;9.00;6.05;;;;;;;;;;2040580;29;20536;-93
2022/08/16 03:41:34;;;;;;;11.93;6.03;;;;;;;;;;2033046;29;20038;-92
2022/08/16 03:42:35;;;;;;;11.23;5.63;;;;;;;;;;2040588;29;20030;-92
2022/08/16 03:43:35;;;;;;;10.00;5.53;;;;;;;;;;2032744;29;20563;-92
2022/08/16 03:44:36;;;;;;;8.32;6.18;;;;;;;;;;2032779;29;20087;-93
2022/08/16 03:45:39;;;;;;;8.63;6.22;;;;;;;;;;2040843;29;20028;-93
2022/08/16 03:46:40;;;;;;;8.98;5.53;;;;;;;;;;2016894;29;20039;-93
2022/08/16 03:47:42;;;;;;;9.52;5.70;;;;;;;;;;2032703;29;20468;-93
2022/08/16 03:48:42;;;;;;;9.63;5.72;;;;;;;;;;2033161;29;20028;-93
2022/08/16 03:49:43;;;;;;;9.85;6.45;;;;;;;;;;2040503;29;20043;-92
2022/08/16 03:50:44;;;;;;;9.10;5.85;;;;;;;;;;2040770;29;20059;-93
2022/08/16 03:51:44;;;;;;;11.95;6.38;;;;;;;;;;2032730;29;20015;-93
2022/08/16 03:52:45;;;;;;;7.93;5.45;;;;;;;;;;2032930;29;20028;-93
2022/08/16 03:53:46;;;;;;;10.30;6.57;;;;;;;;;;2040789;29;20026;-95
2022/08/16 03:54:47;;;;;;;8.90;6.15;;;;;;;;;;2041162;29;20103;-93
2022/08/16 03:55:47;;;;;;;9.85;5.50;;;;;;;;;;2035137;29;21893;-91
2022/08/16 03:56:49;;;;;;;7.95;5.55;;;;;;;;;;1691174;29;10182792;-89
2022/08/16 03:57:52;;;;;;;14.02;6.50;;;;;;;;;;2036503;29;20080;-91
2022/08/16 03:58:55;;;;;;;8.25;5.47;;;;;;;;;;2041357;29;20485;-92
2022/08/16 03:59:55;;;;;;;8.77;5.82;;;;;;;;;;2040614;29;20028;-91
2022/08/16 04:00:55;;;;;;;10.30;5.65;;;;;;;;;;2032871;29;20035;-91
2022/08/16 04:01:58;;;;;;;9.93;6.20;;;;;;;;;;2040731;29;20467;-91
2022/08/16 04:03:06;;;;;;;7.97;5.60;;;;;;;;;;2040585;29;20024;-92
2022/08/16 04:04:06;;;;;;;7.95;5.63;;;;;;;;;;2033678;29;20071;-93
2022/08/16 04:05:07;;;;;;;7.90;5.18;;;;;;;;;;2032415;29;20479;-94
2022/08/16 04:06:08;;;;;;;8.55;5.85;;;;;;;;;;2040435;29;20186;-93
2022/08/16 04:07:08;;;;;;;11.50;5.70;;;;;;;;;;2040447;29;20483;-93
2022/08/16 04:08:09;;;;;;;12.50;5.90;;;;;;;;;;2032654;29;20487;-93
2022/08/16 04:09:11;;;;;;;10.00;5.78;;;;;;;;;;2032487;29;20036;-94
2022/08/16 04:10:13;;;;;;;8.02;5.72;;;;;;;;;;2032748;29;20391;-93
2022/08/16 04:11:14;;;;;;;9.30;5.97;;;;;;;;;;2032745;29;20051;-94
2022/08/16 04:12:14;;;;;;;7.40;5.38;;;;;;;;;;2032727;29;20032;-92
2022/08/16 04:13:15;;;;;;;9.50;5.35;;;;;;;;;;2033942;29;20115;-88
2022/08/16 04:14:15;;;;;;;9.57;5.95;;;;;;;;;;2038336;29;20035;-90
2022/08/16 04:15:16;;;;;;;10.77;6.00;;;;;;;;;;2045631;29;20083;-89
2022/08/16 04:16:16;;;;;;;8.68;6.03;;;;;;;;;;1700216;29;10002336;-93
2022/08/16 04:17:17;;;;;;;10.52;5.82;;;;;;;;;;2040745;29;20482;-93
2022/08/16 04:18:17;;;;;;;10.45;6.03;;;;;;;;;;2040576;29;20032;-92
2022/08/16 04:19:18;;;;;;;10.30;6.28;;;;;;;;;;2032618;29;20032;-91
2022/08/16 04:20:19;;;;;;;9.32;5.43;;;;;;;;;;2032446;29;20411;-91
2022/08/16 04:21:20;;;;;;;9.82;5.97;;;;;;;;;;2032529;29;20503;-94
2022/08/16 04:22:21;;;;;;;8.40;5.53;;;;;;;;;;2032513;29;20032;-93
2022/08/16 04:23:22;;;;;;;8.93;5.95;;;;;;;;;;2032429;29;20028;-92
2022/08/16 04:24:22;;;;;;;8.50;5.30;;;;;;;;;;2040643;29;20031;-93
2022/08/16 04:25:23;;;;;;;9.38;5.65;;;;;;;;;;2040665;29;20031;-91
2022/08/16 04:26:23;;;;;;;10.07;6.32;;;;;;;;;;2040129;29;20056;-91
2022/08/16 04:27:24;;;;;;;6.94;4.90;;;;;;;;;;1694580;28;10344737;-91
2022/08/16 04:28:25;;;;;;;8.05;5.63;;;;;;;;;;2039995;29;20125;-91
2022/08/16 04:29:26;;;;;;;8.80;5.13;;;;;;;;;;2031891;29;20519;-93
2022/08/16 04:30:27;;;;;;;9.23;5.68;;;;;;;;;;2032267;29;20031;-93
2022/08/16 04:31:27;;;;;;;9.30;5.90;;;;;;;;;;2032448;29;20052;-92
2022/08/16 04:32:28;;;;;;;8.52;6.13;;;;;;;;;;2040111;29;20059;-92
2022/08/16 04:33:28;;;;;;;10.52;5.90;;;;;;;;;;2039815;29;20123;-91
2022/08/16 04:34:32;;;;;;;10.68;6.03;;;;;;;;;;2031824;29;20042;-92
2022/08/16 04:35:32;;;;;;;9.63;5.95;;;;;;;;;;2032316;29;20427;-92
2022/08/16 04:36:34;;;;;;;9.95;6.00;;;;;;;;;;2039796;29;20098;-93
2022/08/16 04:37:35;;;;;;;10.93;6.07;;;;;;;;;;2039973;29;20042;-92
2022/08/16 04:38:36;;;;;;;8.68;6.13;;;;;;;;;;2039911;29;20035;-93
2022/08/16 04:39:36;;;;;;;8.20;5.20;;;;;;;;;;2039663;29;20047;-92
2022/08/16 04:40:37;;;;;;;11.40;6.15;;;;;;;;;;2033640;29;20431;-93
2022/08/16 04:41:37;;;;;;;10.02;6.50;;;;;;;;;;2033498;29;20092;-92
2022/08/16 04:42:40;;;;;;;13.10;6.05;;;;;;;;;;2041135;29;20439;-93
2022/08/16 04:43:41;;;;;;;8.23;5.85;;;;;;;;;;2040870;29;20023;-93
2022/08/16 04:44:50;;;;;;;7.07;5.08;;;;;;;;;;1670372;29;10003978;-93
2022/08/16 04:45:51;;;;;;;10.02;5.63;;;;;;;;;;2042052;29;20177;-92
2022/08/16 04:46:52;;;;;;;11.23;6.28;;;;;;;;;;2043241;29;20031;-93
2022/08/16 04:47:52;;;;;;;8.38;5.95;;;;;;;;;;2041170;29;20036;-94
2022/08/16 04:48:53;;;;;;;10.05;6.38;;;;;;;;;;2041441;29;20038;-92
2022/08/16 04:49:54;;;;;;;9.10;5.32;;;;;;;;;;2041121;29;20114;-92
2022/08/16 04:50:54;;;;;;;6.95;5.20;;;;;;;;;;1687112;29;10202592;-93
2022/08/16 04:51:55;;;;;;;7.20;5.13;;;;;;;;;;2033684;29;20035;-93
2022/08/16 04:52:57;;;;;;;10.15;4.80;;;;;;;;;;2033484;29;20091;-93
2022/08/16 04:53:58;;;;;;;7.70;5.50;;;;;;;;;;2033544;29;20060;-94
2022/08/16 04:54:58;;;;;;;9.10;5.28;;;;;;;;;;2041950;29;20518;-92
2022/08/16 04:55:59;;;;;;;7.10;5.20;;;;;;;;;;2050736;29;20035;-93
2022/08/16 04:56:59;;;;;;;8.85;6.30;;;;;;;;;;2042214;29;20066;-93
2022/08/16 04:58:00;;;;;;;6.43;4.72;;;;;;;;;;2033496;29;20036;-93
2022/08/16 04:59:01;;;;;;;6.68;5.28;;;;;;;;;;2042181;29;20149;-95
2022/08/16 05:00:05;;;;;;;9.13;5.63;;;;;;;;;;2050423;29;20046;-93
2022/08/16 05:01:06;;;;;;;6.72;5.82;;;;;;;;;;2050796;28;20038;-91
2022/08/16 05:02:06;;;;;;;8.05;5.38;;;;;;;;;;2043162;29;20035;-94
2022/08/16 05:03:09;;;;;;;7.57;5.65;;;;;;;;;;2042281;29;20091;-92
2022/08/16 05:04:09;;;;;;;8.07;5.75;;;;;;;;;;2051590;29;20063;-92
2022/08/16 05:05:11;;;;;;;7.18;5.65;;;;;;;;;;2051606;29;20047;-94
2022/08/16 05:06:12;;;;;;;7.68;5.72;;;;;;;;;;2034116;29;20035;-92
2022/08/16 05:07:13;;;;;;;6.78;5.10;;;;;;;;;;2032842;29;20318;-93
2022/08/16 05:08:13;;;;;;;5.90;4.88;;;;;;;;;;2033292;29;20024;-93
2022/08/16 05:09:13;;;;;;;7.60;5.13;;;;;;;;;;2033374;29;20455;-92
2022/08/16 05:10:14;;;;;;;7.18;4.85;;;;;;;;;;2041701;29;20495;-92
2022/08/16 05:11:15;;;;;;;8.45;5.75;;;;;;;;;;2034888;29;20032;-93
2022/08/16 05:12:16;;;;;;;7.38;5.45;;;;;;;;;;2041670;29;20032;-92
2022/08/16 05:13:17;;;;;;;8.38;5.72;;;;;;;;;;2041178;29;20115;-92
2022/08/16 05:14:18;;;;;;;5.82;5.22;;;;;;;;;;2041013;29;20062;-92
2022/08/16 05:15:18;;;;;;;8.30;5.93;;;;;;;;;;2041522;29;20028;-93
2022/08/16 05:16:29;;;;;;;5.90;5.30;;;;;;;;;;2033265;29;20542;-93
2022/08/16 05:17:33;;;;;;;7.13;5.15;;;;;;;;;;2042722;29;20035;-92
2022/08/16 05:18:36;;;;;;;6.80;5.30;;;;;;;;;;2040859;29;20154;-94
2022/08/16 05:19:36;;;;;;;7.93;5.38;;;;;;;;;;2032777;29;20068;-91
2022/08/16 05:20:37;;;;;;;7.55;5.40;;;;;;;;;;2041081;29;20573;-90
2022/08/16 05:21:37;;;;;;;7.63;5.20;;;;;;;;;;2041075;29;20075;-93
2022/08/16 05:22:38;;;;;;;7.03;5.55;;;;;;;;;;2033003;29;20040;-93
2022/08/16 05:23:39;;;;;;;6.60;5.43;;;;;;;;;;2033304;29;20028;-91
2022/08/16 05:24:45;;;;;;;6.25;5.10;;;;;;;;;;2041215;29;20055;-92
2022/08/16 05:25:45;;;;;;;7.30;5.20;;;;;;;;;;2049033;29;20031;-94
2022/08/16 05:26:45;;;;;;;7.32;5.22;;;;;;;;;;2041227;29;20562;-93
2022/08/16 05:27:46;;;;;;;5.90;5.13;;;;;;;;;;2032957;29;20032;-93
2022/08/16 05:28:47;;;;;;;6.43;5.45;;;;;;;;;;2033523;29;20098;-94
2022/08/16 05:29:51;;;;;;;7.38;5.20;;;;;;;;;;1684493;29;10280903;-93
2022/08/16 05:30:51;;;;;;;8.32;4.75;;;;;;;;;;2033609;29;20133;-94
2022/08/16 05:31:52;;;;;;;6.43;4.97;;;;;;;;;;2033329;29;20028;-93
2022/08/16 05:32:52;;;;;;;6.32;4.93;;;;;;;;;;2041109;29;20483;-93
2022/08/16 05:33:53;;;;;;;7.45;5.30;;;;;;;;;;2049851;29;20038;-93
2022/08/16 05:34:54;;;;;;;5.85;4.70;;;;;;;;;;2040862;29;20028;-94
2022/08/16 05:35:54;;;;;;;6.53;5.05;;;;;;;;;;2040935;29;20035;-93
2022/08/16 05:36:56;;;;;;;6.72;4.85;;;;;;;;;;2033034;29;20603;-94
2022/08/16 05:37:56;;;;;;;5.72;4.90;;;;;;;;;;1681008;29;10383078;-91
2022/08/16 05:38:57;;;;;;;5.50;4.55;;;;;;;;;;2033013;29;20127;-91
2022/08/16 05:39:57;;;;;;;5.28;4.68;;;;;;;;;;2042010;29;20035;-92
2022/08/16 05:41:00;;;;;;;7.78;5.20;;;;;;;;;;2049637;29;20024;-90
2022/08/16 05:42:00;;;;;;;7.40;4.57;;;;;;;;;;2049585;29;20157;-91
2022/08/16 05:43:00;;;;;;;5.75;4.82;;;;;;;;;;2041282;29;20094;-92
2022/08/16 05:44:01;;;;;;;6.07;4.90;;;;;;;;;;2033102;29;20036;-91
2022/08/16 05:45:04;;;;;;;7.22;5.43;;;;;;;;;;2040998;29;20466;-93
2022/08/16 05:46:05;;;;;;;6.45;5.07;;;;;;;;;;2040638;29;20024;-93
2022/08/16 05:47:06;;;;;;;6.95;4.95;;;;;;;;;;2040855;29;20039;-91
2022/08/16 05:48:07;;;;;;;8.43;4.80;;;;;;;;;;2041473;29;20058;-92
2022/08/16 05:49:08;;;;;;;6.97;5.20;;;;;;;;;;2041329;29;20509;-91
2022/08/16 05:50:09;;;;;;;5.88;4.72;;;;;;;;;;2051222;29;20031;-91
2022/08/16 05:51:09;;;;;;;7.20;5.10;;;;;;;;;;2041269;29;20396;-93
2022/08/16 05:52:11;;;;;;;6.03;5.10;;;;;;;;;;2042317;29;20031;-92
2022/08/16 05:53:11;;;;;;;5.70;5.13;;;;;;;;;;2042611;29;20514;-92
2022/08/16 05:54:16;;;;;;;7.15;4.97;;;;;;;;;;2036350;29;20186;-92
2022/08/16 05:55:22;;;;;;;6.30;4.80;;;;;;;;;;1695052;29;10000904;-95
2022/08/16 05:56:25;;;;;;;9.02;5.07;;;;;;;;;;2034673;29;20535;-93
2022/08/16 05:57:26;;;;;;;5.75;5.15;;;;;;;;;;2041750;29;20396;-93
2022/08/16 05:58:28;;;;;;;7.07;5.15;;;;;;;;;;1749410;28;10287373;-94
2022/08/16 05:59:28;;;;;;;6.28;5.10;;;;;;;;;;2041381;29;20685;-92
2022/08/16 06:00:30;;;;;;;6.32;4.80;;;;;;;;;;2033335;29;20031;-93
2022/08/16 06:01:30;;;;;;;5.15;4.57;;;;;;;;;;2033362;29;20619;-92
2022/08/16 06:02:32;;;;;;;5.57;4.50;;;;;;;;;;2041399;29;20043;-91
2022/08/16 06:03:33;;;;;;;5.45;4.90;;;;;;;;;;2041849;29;20039;-90
2022/08/16 06:04:33;;;;;;;6.45;4.50;;;;;;;;;;2033628;29;20028;-95
2022/08/16 06:05:34;;;;;;;7.45;5.47;;;;;;;;;;2041378;29;20024;-94
2022/08/16 06:06:34;;;;;;;7.45;4.80;;;;;;;;;;2041290;29;20126;-93
2022/08/16 06:07:35;;;;;;;5.55;4.82;;;;;;;;;;2033292;29;20547;-92
2022/08/16 06:08:35;;;;;;;5.50;4.63;;;;;;;;;;2041025;29;20038;-94
2022/08/16 06:09:36;;;;;;;4.70;4.20;;;;;;;;;;2041487;29;20055;-93